sensor_id;sensor_type;location;lat;lon;timestamp;temperature;humidity
27540;DHT22;15906;52.046;4.724;2022-12-10T00:01:48;0.80;99.90
27540;DHT22;15906;52.046;4.724;2022-12-10T00:04:14;0.90;99.90
27540;DHT22;15906;52.046;4.724;2022-12-10T00:06:41;0.90;99.90
27540;DHT22;15906;52.046;4.724;2022-12-10T00:09:10;0.90;99.90
27540;DHT22;15906;52.046;4.724;2022-12-10T00:11:37;0.90;99.90
27540;DHT22;15906;52.046;4.724;2022-12-10T00:14:03;0.90;99.90
27540;DHT22;15906;52.046;4.724;2022-12-10T00:16:29;0.90;99.90
27540;DHT22;15906;52.046;4.724;2022-12-10T00:18:55;1.00;99.90
27540;DHT22;15906;52.046;4.724;2022-12-10T00:21:27;1.00;99.90
27540;DHT22;15906;52.046;4.724;2022-12-10T00:23:52;0.90;99.90
27540;DHT22;15906;52.046;4.724;2022-12-10T00:26:27;1.00;99.90
27540;DHT22;15906;52.046;4.724;2022-12-10T00:28:53;1.00;99.90
27540;DHT22;15906;52.046;4.724;2022-12-10T00:31:23;0.90;99.90
27540;DHT22;15906;52.046;4.724;2022-12-10T00:33:49;1.00;99.90
27540;DHT22;15906;52.046;4.724;2022-12-10T00:36:21;1.00;99.90
27540;DHT22;15906;52.046;4.724;2022-12-10T00:38:48;1.00;99.90
27540;DHT22;15906;52.046;4.724;2022-12-10T00:41:14;1.00;99.90
27540;DHT22;15906;52.046;4.724;2022-12-10T00:43:40;1.10;99.90
27540;DHT22;15906;52.046;4.724;2022-12-10T00:46:06;1.10;99.90
27540;DHT22;15906;52.046;4.724;2022-12-10T00:48:32;0.90;99.90
27540;DHT22;15906;52.046;4.724;2022-12-10T00:51:08;1.00;99.90
27540;DHT22;15906;52.046;4.724;2022-12-10T00:53:36;0.90;99.90
27540;DHT22;15906;52.046;4.724;2022-12-10T00:56:02;0.80;99.90
27540;DHT22;15906;52.046;4.724;2022-12-10T00:58:33;0.70;99.90
27540;DHT22;15906;52.046;4.724;2022-12-10T01:03:48;0.90;99.90
27540;DHT22;15906;52.046;4.724;2022-12-10T01:08:44;0.70;99.90
27540;DHT22;15906;52.046;4.724;2022-12-10T01:11:13;0.80;99.90
27540;DHT22;15906;52.046;4.724;2022-12-10T01:13:39;0.80;99.90
27540;DHT22;15906;52.046;4.724;2022-12-10T01:16:07;0.70;99.90
27540;DHT22;15906;52.046;4.724;2022-12-10T01:18:34;0.70;99.90
27540;DHT22;15906;52.046;4.724;2022-12-10T01:21:04;0.80;99.90
27540;DHT22;15906;52.046;4.724;2022-12-10T01:23:34;0.80;99.90
27540;DHT22;15906;52.046;4.724;2022-12-10T01:26:01;0.70;99.90
27540;DHT22;15906;52.046;4.724;2022-12-10T01:28:29;0.60;99.90
27540;DHT22;15906;52.046;4.724;2022-12-10T01:30:55;0.70;99.90
27540;DHT22;15906;52.046;4.724;2022-12-10T01:33:21;0.70;99.90
27540;DHT22;15906;52.046;4.724;2022-12-10T01:35:46;0.60;99.90
27540;DHT22;15906;52.046;4.724;2022-12-10T01:38:13;0.60;99.90
27540;DHT22;15906;52.046;4.724;2022-12-10T01:40:39;0.60;99.90
27540;DHT22;15906;52.046;4.724;2022-12-10T01:43:04;0.60;99.90
27540;DHT22;15906;52.046;4.724;2022-12-10T01:45:30;0.60;99.90
27540;DHT22;15906;52.046;4.724;2022-12-10T01:47:56;0.60;99.90
27540;DHT22;15906;52.046;4.724;2022-12-10T01:50:21;0.80;99.90
27540;DHT22;15906;52.046;4.724;2022-12-10T01:52:47;0.60;99.90
27540;DHT22;15906;52.046;4.724;2022-12-10T01:55:37;0.60;99.90
27540;DHT22;15906;52.046;4.724;2022-12-10T01:58:04;0.60;99.90
27540;DHT22;15906;52.046;4.724;2022-12-10T02:00:32;0.80;99.90
27540;DHT22;15906;52.046;4.724;2022-12-10T02:03:10;0.60;99.90
27540;DHT22;15906;52.046;4.724;2022-12-10T02:05:42;0.60;99.90
27540;DHT22;15906;52.046;4.724;2022-12-10T02:08:19;0.60;99.90
27540;DHT22;15906;52.046;4.724;2022-12-10T02:11:03;0.70;99.90
27540;DHT22;15906;52.046;4.724;2022-12-10T02:13:40;0.60;99.90
27540;DHT22;15906;52.046;4.724;2022-12-10T02:16:13;0.70;99.90
27540;DHT22;15906;52.046;4.724;2022-12-10T02:21:16;0.60;99.90
27540;DHT22;15906;52.046;4.724;2022-12-10T02:23:49;0.70;99.90
27540;DHT22;15906;52.046;4.724;2022-12-10T02:31:37;0.60;99.90
27540;DHT22;15906;52.046;4.724;2022-12-10T02:34:06;0.60;99.90
27540;DHT22;15906;52.046;4.724;2022-12-10T02:36:37;0.60;99.90
27540;DHT22;15906;52.046;4.724;2022-12-10T02:39:06;0.70;99.90
27540;DHT22;15906;52.046;4.724;2022-12-10T02:41:35;0.70;99.90
27540;DHT22;15906;52.046;4.724;2022-12-10T02:44:06;0.60;99.90
27540;DHT22;15906;52.046;4.724;2022-12-10T02:46:33;0.60;99.90
27540;DHT22;15906;52.046;4.724;2022-12-10T02:49:02;0.60;99.90
27540;DHT22;15906;52.046;4.724;2022-12-10T02:51:29;0.50;99.90
27540;DHT22;15906;52.046;4.724;2022-12-10T02:54:02;0.60;99.90
27540;DHT22;15906;52.046;4.724;2022-12-10T02:56:34;0.50;99.90
27540;DHT22;15906;52.046;4.724;2022-12-10T03:02:07;0.60;99.90
27540;DHT22;15906;52.046;4.724;2022-12-10T03:04:46;0.60;99.90
27540;DHT22;15906;52.046;4.724;2022-12-10T03:07:32;0.60;99.90
27540;DHT22;15906;52.046;4.724;2022-12-10T03:10:03;0.60;99.90
27540;DHT22;15906;52.046;4.724;2022-12-10T03:12:38;0.60;99.90
27540;DHT22;15906;52.046;4.724;2022-12-10T03:15:08;0.70;99.90
27540;DHT22;15906;52.046;4.724;2022-12-10T03:17:36;0.60;99.90
27540;DHT22;15906;52.046;4.724;2022-12-10T03:20:03;0.50;99.90
27540;DHT22;15906;52.046;4.724;2022-12-10T03:22:32;0.40;99.90
27540;DHT22;15906;52.046;4.724;2022-12-10T03:24:59;0.40;99.90
27540;DHT22;15906;52.046;4.724;2022-12-10T03:27:29;0.50;99.90
27540;DHT22;15906;52.046;4.724;2022-12-10T03:29:56;0.60;99.90
27540;DHT22;15906;52.046;4.724;2022-12-10T03:32:26;0.50;99.90
27540;DHT22;15906;52.046;4.724;2022-12-10T03:34:54;0.50;99.90
27540;DHT22;15906;52.046;4.724;2022-12-10T03:37:22;0.50;99.90
27540;DHT22;15906;52.046;4.724;2022-12-10T03:39:48;0.40;99.90
27540;DHT22;15906;52.046;4.724;2022-12-10T03:42:14;0.50;99.90
27540;DHT22;15906;52.046;4.724;2022-12-10T03:44:39;0.50;99.90
27540;DHT22;15906;52.046;4.724;2022-12-10T03:47:07;0.50;99.90
27540;DHT22;15906;52.046;4.724;2022-12-10T03:49:36;0.60;99.90
27540;DHT22;15906;52.046;4.724;2022-12-10T03:52:02;0.60;99.90
27540;DHT22;15906;52.046;4.724;2022-12-10T03:54:28;0.60;99.90
27540;DHT22;15906;52.046;4.724;2022-12-10T03:56:53;0.60;99.90
27540;DHT22;15906;52.046;4.724;2022-12-10T03:59:19;0.50;99.90
27540;DHT22;15906;52.046;4.724;2022-12-10T04:01:45;0.60;99.90
27540;DHT22;15906;52.046;4.724;2022-12-10T04:04:10;0.60;99.90
27540;DHT22;15906;52.046;4.724;2022-12-10T04:06:40;0.50;99.90
27540;DHT22;15906;52.046;4.724;2022-12-10T04:09:09;0.40;99.90
27540;DHT22;15906;52.046;4.724;2022-12-10T04:11:35;0.40;99.90
27540;DHT22;15906;52.046;4.724;2022-12-10T04:14:01;0.50;99.90
27540;DHT22;15906;52.046;4.724;2022-12-10T04:16:45;0.50;99.90
27540;DHT22;15906;52.046;4.724;2022-12-10T04:19:13;0.40;99.90
27540;DHT22;15906;52.046;4.724;2022-12-10T04:21:40;0.60;99.90
27540;DHT22;15906;52.046;4.724;2022-12-10T04:24:28;0.50;99.90
27540;DHT22;15906;52.046;4.724;2022-12-10T04:27:23;0.50;99.90
27540;DHT22;15906;52.046;4.724;2022-12-10T04:29:50;0.60;99.90
27540;DHT22;15906;52.046;4.724;2022-12-10T04:32:16;0.60;99.90
27540;DHT22;15906;52.046;4.724;2022-12-10T04:34:41;0.60;99.90
27540;DHT22;15906;52.046;4.724;2022-12-10T04:37:07;0.60;99.90
27540;DHT22;15906;52.046;4.724;2022-12-10T04:39:33;0.50;99.90
27540;DHT22;15906;52.046;4.724;2022-12-10T04:42:00;0.50;99.90
27540;DHT22;15906;52.046;4.724;2022-12-10T04:44:26;0.50;99.90
27540;DHT22;15906;52.046;4.724;2022-12-10T04:46:52;0.50;99.90
27540;DHT22;15906;52.046;4.724;2022-12-10T04:49:18;0.60;99.90
27540;DHT22;15906;52.046;4.724;2022-12-10T04:51:44;0.60;99.90
27540;DHT22;15906;52.046;4.724;2022-12-10T04:54:10;0.50;99.90
27540;DHT22;15906;52.046;4.724;2022-12-10T04:56:36;0.50;99.90
27540;DHT22;15906;52.046;4.724;2022-12-10T04:59:03;0.50;99.90
27540;DHT22;15906;52.046;4.724;2022-12-10T05:01:29;0.50;99.90
27540;DHT22;15906;52.046;4.724;2022-12-10T05:04:01;0.50;99.90
27540;DHT22;15906;52.046;4.724;2022-12-10T05:06:27;0.50;99.90
27540;DHT22;15906;52.046;4.724;2022-12-10T05:08:53;0.60;99.90
27540;DHT22;15906;52.046;4.724;2022-12-10T05:11:21;0.50;99.90
27540;DHT22;15906;52.046;4.724;2022-12-10T05:13:47;0.60;99.90
27540;DHT22;15906;52.046;4.724;2022-12-10T05:16:15;0.50;99.90
27540;DHT22;15906;52.046;4.724;2022-12-10T05:18:41;0.50;99.90
27540;DHT22;15906;52.046;4.724;2022-12-10T05:21:10;0.50;99.90
27540;DHT22;15906;52.046;4.724;2022-12-10T05:23:37;0.50;99.90
27540;DHT22;15906;52.046;4.724;2022-12-10T05:26:06;0.60;99.90
27540;DHT22;15906;52.046;4.724;2022-12-10T05:28:35;0.70;99.90
27540;DHT22;15906;52.046;4.724;2022-12-10T05:31:01;0.70;99.90
27540;DHT22;15906;52.046;4.724;2022-12-10T05:33:27;0.70;99.90
27540;DHT22;15906;52.046;4.724;2022-12-10T05:35:55;0.70;99.90
27540;DHT22;15906;52.046;4.724;2022-12-10T05:38:21;0.70;99.90
27540;DHT22;15906;52.046;4.724;2022-12-10T05:40:47;0.60;99.90
27540;DHT22;15906;52.046;4.724;2022-12-10T05:43:13;0.60;99.90
27540;DHT22;15906;52.046;4.724;2022-12-10T05:45:38;0.60;99.90
27540;DHT22;15906;52.046;4.724;2022-12-10T05:48:05;0.60;99.90
27540;DHT22;15906;52.046;4.724;2022-12-10T05:50:31;0.60;99.90
27540;DHT22;15906;52.046;4.724;2022-12-10T05:52:57;0.50;99.90
27540;DHT22;15906;52.046;4.724;2022-12-10T05:55:22;0.60;99.90
27540;DHT22;15906;52.046;4.724;2022-12-10T05:57:48;0.50;99.90
27540;DHT22;15906;52.046;4.724;2022-12-10T06:00:13;0.70;99.90
27540;DHT22;15906;52.046;4.724;2022-12-10T06:02:39;0.70;99.90
27540;DHT22;15906;52.046;4.724;2022-12-10T06:05:05;0.70;99.90
27540;DHT22;15906;52.046;4.724;2022-12-10T06:07:30;0.70;99.90
27540;DHT22;15906;52.046;4.724;2022-12-10T06:09:56;0.60;99.90
27540;DHT22;15906;52.046;4.724;2022-12-10T06:12:22;0.70;99.90
27540;DHT22;15906;52.046;4.724;2022-12-10T06:14:47;0.70;99.90
27540;DHT22;15906;52.046;4.724;2022-12-10T06:17:13;0.60;99.90
27540;DHT22;15906;52.046;4.724;2022-12-10T06:19:38;0.60;99.90
27540;DHT22;15906;52.046;4.724;2022-12-10T06:22:04;0.60;99.90
27540;DHT22;15906;52.046;4.724;2022-12-10T06:24:30;0.60;99.90
27540;DHT22;15906;52.046;4.724;2022-12-10T06:26:55;0.60;99.90
27540;DHT22;15906;52.046;4.724;2022-12-10T06:29:21;0.60;99.90
27540;DHT22;15906;52.046;4.724;2022-12-10T06:31:46;0.50;99.90
27540;DHT22;15906;52.046;4.724;2022-12-10T06:34:12;0.60;99.90
27540;DHT22;15906;52.046;4.724;2022-12-10T06:36:37;0.40;99.90
27540;DHT22;15906;52.046;4.724;2022-12-10T06:39:03;0.50;99.90
27540;DHT22;15906;52.046;4.724;2022-12-10T06:41:28;0.50;99.90
27540;DHT22;15906;52.046;4.724;2022-12-10T06:43:54;0.50;99.90
27540;DHT22;15906;52.046;4.724;2022-12-10T06:46:23;0.50;99.90
27540;DHT22;15906;52.046;4.724;2022-12-10T06:48:49;0.50;99.90
27540;DHT22;15906;52.046;4.724;2022-12-10T06:51:15;0.60;99.90
27540;DHT22;15906;52.046;4.724;2022-12-10T06:53:43;0.60;99.90
27540;DHT22;15906;52.046;4.724;2022-12-10T06:56:14;0.50;99.90
27540;DHT22;15906;52.046;4.724;2022-12-10T06:58:40;0.60;99.90
27540;DHT22;15906;52.046;4.724;2022-12-10T07:01:10;0.60;99.90
27540;DHT22;15906;52.046;4.724;2022-12-10T07:03:36;0.50;99.90
27540;DHT22;15906;52.046;4.724;2022-12-10T07:06:03;0.50;99.90
27540;DHT22;15906;52.046;4.724;2022-12-10T07:08:29;0.60;99.90
27540;DHT22;15906;52.046;4.724;2022-12-10T07:10:55;0.50;99.90
27540;DHT22;15906;52.046;4.724;2022-12-10T07:13:22;0.60;99.90
27540;DHT22;15906;52.046;4.724;2022-12-10T07:15:47;0.50;99.90
27540;DHT22;15906;52.046;4.724;2022-12-10T07:18:13;0.50;99.90
27540;DHT22;15906;52.046;4.724;2022-12-10T07:20:38;0.40;99.90
27540;DHT22;15906;52.046;4.724;2022-12-10T07:23:04;0.40;99.90
27540;DHT22;15906;52.046;4.724;2022-12-10T07:25:29;0.50;99.90
27540;DHT22;15906;52.046;4.724;2022-12-10T07:27:55;0.50;99.90
27540;DHT22;15906;52.046;4.724;2022-12-10T07:30:21;0.60;99.90
27540;DHT22;15906;52.046;4.724;2022-12-10T07:32:46;0.60;99.90
27540;DHT22;15906;52.046;4.724;2022-12-10T07:35:12;0.60;99.90
27540;DHT22;15906;52.046;4.724;2022-12-10T07:37:37;0.60;99.90
27540;DHT22;15906;52.046;4.724;2022-12-10T07:40:03;0.50;99.90
27540;DHT22;15906;52.046;4.724;2022-12-10T07:42:29;0.50;99.90
27540;DHT22;15906;52.046;4.724;2022-12-10T07:44:54;0.50;99.90
27540;DHT22;15906;52.046;4.724;2022-12-10T07:47:20;0.60;99.90
27540;DHT22;15906;52.046;4.724;2022-12-10T07:49:45;0.60;99.90
27540;DHT22;15906;52.046;4.724;2022-12-10T07:52:11;0.60;99.90
27540;DHT22;15906;52.046;4.724;2022-12-10T07:54:36;0.50;99.90
27540;DHT22;15906;52.046;4.724;2022-12-10T07:57:02;0.50;99.90
27540;DHT22;15906;52.046;4.724;2022-12-10T07:59:28;0.50;99.90
27540;DHT22;15906;52.046;4.724;2022-12-10T08:01:53;0.50;99.90
27540;DHT22;15906;52.046;4.724;2022-12-10T08:04:19;0.50;99.90
27540;DHT22;15906;52.046;4.724;2022-12-10T08:06:44;0.40;99.90
27540;DHT22;15906;52.046;4.724;2022-12-10T08:09:10;0.40;99.90
27540;DHT22;15906;52.046;4.724;2022-12-10T08:11:37;0.40;99.90
27540;DHT22;15906;52.046;4.724;2022-12-10T08:14:03;0.40;99.90
27540;DHT22;15906;52.046;4.724;2022-12-10T08:16:29;0.50;99.90
27540;DHT22;15906;52.046;4.724;2022-12-10T08:18:58;0.50;99.90
27540;DHT22;15906;52.046;4.724;2022-12-10T08:21:27;0.60;99.90
27540;DHT22;15906;52.046;4.724;2022-12-10T08:23:53;0.60;99.90
27540;DHT22;15906;52.046;4.724;2022-12-10T08:26:22;0.60;99.90
27540;DHT22;15906;52.046;4.724;2022-12-10T08:28:49;0.50;99.90
27540;DHT22;15906;52.046;4.724;2022-12-10T08:31:19;0.50;99.90
27540;DHT22;15906;52.046;4.724;2022-12-10T08:33:45;0.40;99.90
27540;DHT22;15906;52.046;4.724;2022-12-10T08:36:13;0.40;99.90
27540;DHT22;15906;52.046;4.724;2022-12-10T08:38:40;0.30;99.90
27540;DHT22;15906;52.046;4.724;2022-12-10T08:41:14;0.30;99.90
27540;DHT22;15906;52.046;4.724;2022-12-10T08:43:41;0.30;99.90
27540;DHT22;15906;52.046;4.724;2022-12-10T08:46:07;0.30;99.90
27540;DHT22;15906;52.046;4.724;2022-12-10T08:48:35;0.30;99.90
27540;DHT22;15906;52.046;4.724;2022-12-10T08:51:01;0.30;99.90
27540;DHT22;15906;52.046;4.724;2022-12-10T08:53:26;0.20;99.90
27540;DHT22;15906;52.046;4.724;2022-12-10T08:55:53;0.30;99.90
27540;DHT22;15906;52.046;4.724;2022-12-10T08:58:19;0.40;99.90
27540;DHT22;15906;52.046;4.724;2022-12-10T09:00:46;0.40;99.90
27540;DHT22;15906;52.046;4.724;2022-12-10T09:03:12;0.40;99.90
27540;DHT22;15906;52.046;4.724;2022-12-10T09:05:38;0.30;99.90
27540;DHT22;15906;52.046;4.724;2022-12-10T09:08:04;0.30;99.90
27540;DHT22;15906;52.046;4.724;2022-12-10T09:10:30;0.30;99.90
27540;DHT22;15906;52.046;4.724;2022-12-10T09:12:55;0.40;99.90
27540;DHT22;15906;52.046;4.724;2022-12-10T09:15:21;0.30;99.90
27540;DHT22;15906;52.046;4.724;2022-12-10T09:17:46;0.30;99.90
27540;DHT22;15906;52.046;4.724;2022-12-10T09:20:12;0.30;99.90
27540;DHT22;15906;52.046;4.724;2022-12-10T09:22:38;0.30;99.90
27540;DHT22;15906;52.046;4.724;2022-12-10T09:25:06;0.30;99.90
27540;DHT22;15906;52.046;4.724;2022-12-10T09:27:32;0.20;99.90
27540;DHT22;15906;52.046;4.724;2022-12-10T09:29:58;0.20;99.90
27540;DHT22;15906;52.046;4.724;2022-12-10T09:32:24;0.20;99.90
27540;DHT22;15906;52.046;4.724;2022-12-10T09:34:52;0.20;99.90
27540;DHT22;15906;52.046;4.724;2022-12-10T09:37:19;0.20;99.90
27540;DHT22;15906;52.046;4.724;2022-12-10T09:39:44;0.20;99.90
27540;DHT22;15906;52.046;4.724;2022-12-10T09:45:20;0.20;99.90
27540;DHT22;15906;52.046;4.724;2022-12-10T09:50:59;0.00;99.90
27540;DHT22;15906;52.046;4.724;2022-12-10T09:53:28;0.10;99.90
27540;DHT22;15906;52.046;4.724;2022-12-10T09:55:55;0.20;99.90
27540;DHT22;15906;52.046;4.724;2022-12-10T09:58:23;0.10;99.90
27540;DHT22;15906;52.046;4.724;2022-12-10T10:01:00;0.10;99.90
27540;DHT22;15906;52.046;4.724;2022-12-10T10:03:26;0.20;99.90
27540;DHT22;15906;52.046;4.724;2022-12-10T10:05:54;0.30;99.90
27540;DHT22;15906;52.046;4.724;2022-12-10T10:08:44;0.30;99.90
27540;DHT22;15906;52.046;4.724;2022-12-10T10:11:32;0.30;99.90
27540;DHT22;15906;52.046;4.724;2022-12-10T10:14:04;0.30;99.90
27540;DHT22;15906;52.046;4.724;2022-12-10T10:16:34;0.30;99.90
27540;DHT22;15906;52.046;4.724;2022-12-10T10:19:03;0.30;99.90
27540;DHT22;15906;52.046;4.724;2022-12-10T10:21:42;0.30;99.90
27540;DHT22;15906;52.046;4.724;2022-12-10T10:24:13;0.20;99.90
27540;DHT22;15906;52.046;4.724;2022-12-10T10:26:40;0.20;99.90
27540;DHT22;15906;52.046;4.724;2022-12-10T10:29:11;0.20;99.90
27540;DHT22;15906;52.046;4.724;2022-12-10T10:31:40;0.20;99.90
27540;DHT22;15906;52.046;4.724;2022-12-10T10:34:22;0.30;99.90
27540;DHT22;15906;52.046;4.724;2022-12-10T10:36:56;0.30;99.90
27540;DHT22;15906;52.046;4.724;2022-12-10T10:39:31;0.40;99.90
27540;DHT22;15906;52.046;4.724;2022-12-10T10:41:58;0.40;99.90
27540;DHT22;15906;52.046;4.724;2022-12-10T10:44:27;0.40;99.90
27540;DHT22;15906;52.046;4.724;2022-12-10T10:46:58;0.40;99.90
27540;DHT22;15906;52.046;4.724;2022-12-10T10:49:27;0.30;99.90
27540;DHT22;15906;52.046;4.724;2022-12-10T10:51:59;0.30;99.90
27540;DHT22;15906;52.046;4.724;2022-12-10T10:54:41;0.40;99.90
27540;DHT22;15906;52.046;4.724;2022-12-10T10:57:21;0.40;99.90
27540;DHT22;15906;52.046;4.724;2022-12-10T10:59:50;0.40;99.90
27540;DHT22;15906;52.046;4.724;2022-12-10T11:02:40;0.30;99.90
27540;DHT22;15906;52.046;4.724;2022-12-10T11:05:14;0.40;99.90
27540;DHT22;15906;52.046;4.724;2022-12-10T11:07:40;0.40;99.90
27540;DHT22;15906;52.046;4.724;2022-12-10T11:10:33;0.40;99.90
27540;DHT22;15906;52.046;4.724;2022-12-10T11:13:10;0.40;99.90
27540;DHT22;15906;52.046;4.724;2022-12-10T11:15:43;0.50;99.90
27540;DHT22;15906;52.046;4.724;2022-12-10T11:18:40;0.50;99.90
27540;DHT22;15906;52.046;4.724;2022-12-10T11:23:41;0.40;99.90
27540;DHT22;15906;52.046;4.724;2022-12-10T11:26:23;0.40;99.90
27540;DHT22;15906;52.046;4.724;2022-12-10T11:32:32;0.60;99.90
27540;DHT22;15906;52.046;4.724;2022-12-10T11:35:27;0.60;99.90
27540;DHT22;15906;52.046;4.724;2022-12-10T11:38:19;0.60;99.90
27540;DHT22;15906;52.046;4.724;2022-12-10T11:41:15;0.60;99.90
27540;DHT22;15906;52.046;4.724;2022-12-10T11:55:26;0.60;99.90
27540;DHT22;15906;52.046;4.724;2022-12-10T12:01:12;0.60;99.90
27540;DHT22;15906;52.046;4.724;2022-12-10T12:11:30;0.70;99.90
27540;DHT22;15906;52.046;4.724;2022-12-10T12:14:24;0.70;99.90
27540;DHT22;15906;52.046;4.724;2022-12-10T12:17:06;0.70;99.90
27540;DHT22;15906;52.046;4.724;2022-12-10T12:19:42;0.70;99.90
27540;DHT22;15906;52.046;4.724;2022-12-10T12:22:25;0.70;99.90
27540;DHT22;15906;52.046;4.724;2022-12-10T12:27:48;0.60;99.90
27540;DHT22;15906;52.046;4.724;2022-12-10T12:30:18;0.60;99.90
27540;DHT22;15906;52.046;4.724;2022-12-10T12:33:10;0.60;99.90
27540;DHT22;15906;52.046;4.724;2022-12-10T12:35:56;0.70;99.90
27540;DHT22;15906;52.046;4.724;2022-12-10T12:41:09;0.70;99.90
27540;DHT22;15906;52.046;4.724;2022-12-10T12:43:51;0.80;99.90
27540;DHT22;15906;52.046;4.724;2022-12-10T12:46:40;0.80;99.90
27540;DHT22;15906;52.046;4.724;2022-12-10T12:49:27;0.80;99.90
27540;DHT22;15906;52.046;4.724;2022-12-10T12:52:10;0.80;99.90
27540;DHT22;15906;52.046;4.724;2022-12-10T12:54:42;0.80;99.90
27540;DHT22;15906;52.046;4.724;2022-12-10T13:00:05;0.90;99.90
27540;DHT22;15906;52.046;4.724;2022-12-10T13:02:49;1.00;99.90
27540;DHT22;15906;52.046;4.724;2022-12-10T13:05:27;1.00;99.90
27540;DHT22;15906;52.046;4.724;2022-12-10T13:13:38;0.90;99.90
27540;DHT22;15906;52.046;4.724;2022-12-10T13:22:04;0.80;99.90
27540;DHT22;15906;52.046;4.724;2022-12-10T13:24:46;0.80;99.90
27540;DHT22;15906;52.046;4.724;2022-12-10T13:27:19;0.90;99.90
27540;DHT22;15906;52.046;4.724;2022-12-10T13:29:57;0.90;99.90
27540;DHT22;15906;52.046;4.724;2022-12-10T13:37:38;0.90;99.90
27540;DHT22;15906;52.046;4.724;2022-12-10T13:43:35;0.90;99.90
27540;DHT22;15906;52.046;4.724;2022-12-10T13:46:59;1.00;99.90
27540;DHT22;15906;52.046;4.724;2022-12-10T13:49:27;0.90;99.90
27540;DHT22;15906;52.046;4.724;2022-12-10T13:52:07;0.80;99.90
27540;DHT22;15906;52.046;4.724;2022-12-10T13:55:02;0.90;99.90
27540;DHT22;15906;52.046;4.724;2022-12-10T14:00:23;0.90;99.90
27540;DHT22;15906;52.046;4.724;2022-12-10T14:03:21;0.90;99.90
27540;DHT22;15906;52.046;4.724;2022-12-10T14:08:40;0.80;99.90
27540;DHT22;15906;52.046;4.724;2022-12-10T14:11:18;0.90;99.90
27540;DHT22;15906;52.046;4.724;2022-12-10T14:13:49;1.00;99.90
27540;DHT22;15906;52.046;4.724;2022-12-10T14:16:20;1.00;99.90
27540;DHT22;15906;52.046;4.724;2022-12-10T14:18:56;1.00;99.90
27540;DHT22;15906;52.046;4.724;2022-12-10T14:21:23;0.90;99.90
27540;DHT22;15906;52.046;4.724;2022-12-10T14:23:50;0.90;99.90
27540;DHT22;15906;52.046;4.724;2022-12-10T14:26:22;0.90;99.90
27540;DHT22;15906;52.046;4.724;2022-12-10T14:29:20;0.90;99.90
27540;DHT22;15906;52.046;4.724;2022-12-10T14:31:50;1.00;99.90
27540;DHT22;15906;52.046;4.724;2022-12-10T14:34:20;1.00;99.90
27540;DHT22;15906;52.046;4.724;2022-12-10T14:36:49;1.00;99.90
27540;DHT22;15906;52.046;4.724;2022-12-10T14:39:19;1.00;99.90
27540;DHT22;15906;52.046;4.724;2022-12-10T14:41:47;1.00;99.90
27540;DHT22;15906;52.046;4.724;2022-12-10T14:44:16;1.00;99.90
27540;DHT22;15906;52.046;4.724;2022-12-10T14:46:42;1.00;99.90
27540;DHT22;15906;52.046;4.724;2022-12-10T14:49:16;1.00;99.90
27540;DHT22;15906;52.046;4.724;2022-12-10T14:51:42;1.10;99.90
27540;DHT22;15906;52.046;4.724;2022-12-10T14:54:30;1.10;99.90
27540;DHT22;15906;52.046;4.724;2022-12-10T14:57:02;1.00;99.90
27540;DHT22;15906;52.046;4.724;2022-12-10T14:59:34;1.20;99.90
27540;DHT22;15906;52.046;4.724;2022-12-10T15:02:14;1.20;99.90
27540;DHT22;15906;52.046;4.724;2022-12-10T15:04:43;1.30;99.90
27540;DHT22;15906;52.046;4.724;2022-12-10T15:07:18;1.30;99.90
27540;DHT22;15906;52.046;4.724;2022-12-10T15:09:47;1.40;99.90
27540;DHT22;15906;52.046;4.724;2022-12-10T15:12:52;1.30;99.90
27540;DHT22;15906;52.046;4.724;2022-12-10T15:15:16;1.30;99.90
27540;DHT22;15906;52.046;4.724;2022-12-10T15:20:36;1.30;99.90
27540;DHT22;15906;52.046;4.724;2022-12-10T15:23:08;1.20;99.90
27540;DHT22;15906;52.046;4.724;2022-12-10T15:25:44;1.30;99.90
27540;DHT22;15906;52.046;4.724;2022-12-10T15:30:47;1.40;99.90
27540;DHT22;15906;52.046;4.724;2022-12-10T15:33:31;1.40;99.90
27540;DHT22;15906;52.046;4.724;2022-12-10T15:35:59;1.40;99.90
27540;DHT22;15906;52.046;4.724;2022-12-10T15:38:26;1.60;99.90
27540;DHT22;15906;52.046;4.724;2022-12-10T15:41:19;1.60;99.90
27540;DHT22;15906;52.046;4.724;2022-12-10T15:44:00;1.60;99.90
27540;DHT22;15906;52.046;4.724;2022-12-10T15:46:26;1.50;99.90
27540;DHT22;15906;52.046;4.724;2022-12-10T15:48:52;1.60;99.90
27540;DHT22;15906;52.046;4.724;2022-12-10T15:51:17;1.60;99.90
27540;DHT22;15906;52.046;4.724;2022-12-10T15:53:43;1.70;99.90
27540;DHT22;15906;52.046;4.724;2022-12-10T15:56:09;1.60;99.90
27540;DHT22;15906;52.046;4.724;2022-12-10T15:58:34;1.70;99.90
27540;DHT22;15906;52.046;4.724;2022-12-10T16:01:00;1.70;99.90
27540;DHT22;15906;52.046;4.724;2022-12-10T16:03:28;1.70;99.90
27540;DHT22;15906;52.046;4.724;2022-12-10T16:05:54;1.60;99.90
27540;DHT22;15906;52.046;4.724;2022-12-10T16:10:50;1.70;99.90
27540;DHT22;15906;52.046;4.724;2022-12-10T16:13:22;1.60;99.90
27540;DHT22;15906;52.046;4.724;2022-12-10T16:15:58;1.60;99.90
27540;DHT22;15906;52.046;4.724;2022-12-10T16:18:25;1.70;99.90
27540;DHT22;15906;52.046;4.724;2022-12-10T16:20:50;1.70;99.90
27540;DHT22;15906;52.046;4.724;2022-12-10T16:23:16;1.70;99.90
27540;DHT22;15906;52.046;4.724;2022-12-10T16:25:44;1.70;99.90
27540;DHT22;15906;52.046;4.724;2022-12-10T16:28:12;1.70;99.90
27540;DHT22;15906;52.046;4.724;2022-12-10T16:30:48;1.70;99.90
27540;DHT22;15906;52.046;4.724;2022-12-10T16:33:18;1.60;99.90
27540;DHT22;15906;52.046;4.724;2022-12-10T16:35:45;1.70;99.90
27540;DHT22;15906;52.046;4.724;2022-12-10T16:38:10;1.70;99.90
27540;DHT22;15906;52.046;4.724;2022-12-10T16:40:38;1.80;99.90
27540;DHT22;15906;52.046;4.724;2022-12-10T16:43:04;1.80;99.90
27540;DHT22;15906;52.046;4.724;2022-12-10T16:45:34;1.80;99.90
27540;DHT22;15906;52.046;4.724;2022-12-10T16:48:01;1.80;99.90
27540;DHT22;15906;52.046;4.724;2022-12-10T16:50:26;1.90;99.90
27540;DHT22;15906;52.046;4.724;2022-12-10T16:52:54;1.80;99.90
27540;DHT22;15906;52.046;4.724;2022-12-10T16:55:22;1.80;99.90
27540;DHT22;15906;52.046;4.724;2022-12-10T16:57:49;1.90;99.90
27540;DHT22;15906;52.046;4.724;2022-12-10T17:00:16;1.90;99.90
27540;DHT22;15906;52.046;4.724;2022-12-10T17:02:43;1.90;99.90
27540;DHT22;15906;52.046;4.724;2022-12-10T17:05:18;1.80;99.90
27540;DHT22;15906;52.046;4.724;2022-12-10T17:07:47;1.90;99.90
27540;DHT22;15906;52.046;4.724;2022-12-10T17:10:13;1.90;99.90
27540;DHT22;15906;52.046;4.724;2022-12-10T17:12:40;1.90;99.90
27540;DHT22;15906;52.046;4.724;2022-12-10T17:15:11;2.00;99.90
27540;DHT22;15906;52.046;4.724;2022-12-10T17:17:37;1.90;99.90
27540;DHT22;15906;52.046;4.724;2022-12-10T17:20:14;1.90;99.90
27540;DHT22;15906;52.046;4.724;2022-12-10T17:22:40;1.90;99.90
27540;DHT22;15906;52.046;4.724;2022-12-10T17:25:05;1.90;99.90
27540;DHT22;15906;52.046;4.724;2022-12-10T17:27:31;1.80;99.90
27540;DHT22;15906;52.046;4.724;2022-12-10T17:29:57;1.90;99.90
27540;DHT22;15906;52.046;4.724;2022-12-10T17:32:22;1.90;99.90
27540;DHT22;15906;52.046;4.724;2022-12-10T17:34:48;1.90;99.90
27540;DHT22;15906;52.046;4.724;2022-12-10T17:37:17;1.90;99.90